Time;durP1;ratioP1;P1;durP2;ratioP2;P2;SDS_P1;SDS_P2;PMS_P1;PMS_P2;Temp;Humidity;BMP_temperature;BMP_pressure;BME280_temperature;BME280_humidity;BME280_pressure;Samples;Min_cycle;Max_cycle;Signal;HPM_P1;HPM_P2
2023/06/25 00:01:17;;;;;;;11.75;4.13;;;;;;;17.95;66.36;100131.50;10484251;28;20040;-67
2023/06/25 00:06:19;;;;;;;11.70;4.75;;;;;;;17.95;66.84;100134.19;10499508;28;20059;-67
2023/06/25 00:11:20;;;;;;;28.50;5.22;;;;;;;17.50;67.44;100069.88;10471679;28;20037;-67
2023/06/25 00:16:21;;;;;;;18.13;4.93;;;;;;;17.70;67.89;100113.50;10488074;28;20408;-68
2023/06/25 00:21:22;;;;;;;15.93;5.22;;;;;;;17.74;68.02;100132.69;10499181;28;20411;-67
2023/06/25 00:26:22;;;;;;;12.82;4.28;;;;;;;17.75;68.62;100137.84;10499270;28;20044;-68
2023/06/25 00:31:23;;;;;;;15.98;4.78;;;;;;;17.74;69.01;100130.84;10499015;28;20044;-68
2023/06/25 00:36:24;;;;;;;37.33;5.30;;;;;;;17.65;69.20;100132.16;10498945;28;20051;-67
2023/06/25 00:41:26;;;;;;;19.00;4.72;;;;;;;17.62;69.58;100131.75;10499060;28;20047;-67
2023/06/25 00:46:27;;;;;;;35.20;5.38;;;;;;;17.53;69.62;100126.66;10498368;28;20408;-67
2023/06/25 00:51:28;;;;;;;54.08;7.65;;;;;;;17.57;70.06;100132.41;10499036;28;20064;-68
2023/06/25 00:56:29;;;;;;;19.95;5.22;;;;;;;17.62;69.91;100142.50;10497233;28;20041;-67
2023/06/25 01:01:44;;;;;;;173.98;13.55;;;;;;;17.57;72.05;100148.53;10497986;28;20094;-68
2023/06/25 01:06:48;;;;;;;35.70;6.40;;;;;;;17.00;71.92;100065.31;10497789;28;20106;-68
2023/06/25 01:12:02;;;;;;;27.42;5.85;;;;;;;17.01;73.06;100061.56;10498613;28;20048;-67
2023/06/25 01:17:05;;;;;;;37.13;5.80;;;;;;;16.92;71.36;100057.50;10498024;28;20047;-67
2023/06/25 01:22:07;;;;;;;41.25;6.10;;;;;;;17.29;71.87;100128.28;10497357;28;20076;-68
2023/06/25 01:27:08;;;;;;;23.70;5.43;;;;;;;17.30;72.14;100146.03;10497382;28;20082;-68
2023/06/25 01:32:08;;;;;;;48.67;6.72;;;;;;;16.87;72.29;100076.94;10496556;28;20032;-68
2023/06/25 01:37:11;;;;;;;22.85;5.97;;;;;;;17.11;72.73;100136.22;10497767;28;20036;-67
2023/06/25 01:42:12;;;;;;;38.05;5.95;;;;;;;17.28;72.99;100145.41;10495421;28;20044;-68
2023/06/25 01:47:13;;;;;;;34.65;6.15;;;;;;;17.37;72.98;100145.97;10496143;28;20123;-67
2023/06/25 01:52:14;;;;;;;19.02;4.90;;;;;;;17.04;72.85;100081.78;10495159;28;20063;-68
2023/06/25 01:57:15;;;;;;;32.38;5.70;;;;;;;17.38;73.11;100125.31;10495508;28;20518;-68
2023/06/25 02:02:16;;;;;;;21.75;5.00;;;;;;;17.39;72.94;100113.56;10496212;28;20048;-68
2023/06/25 02:07:16;;;;;;;39.45;5.93;;;;;;;17.54;72.94;100116.75;10495558;28;20052;-68
2023/06/25 02:12:17;;;;;;;33.90;5.93;;;;;;;17.87;72.75;100145.22;10496049;28;20040;-68
2023/06/25 02:17:18;;;;;;;35.97;7.82;;;;;;;17.90;72.64;100139.41;10496249;28;20052;-69
2023/06/25 02:22:19;;;;;;;19.35;6.32;;;;;;;18.00;72.28;100137.03;10494608;28;20044;-68
2023/06/25 02:27:20;;;;;;;31.05;8.10;;;;;;;18.17;71.79;100140.78;10495171;28;20041;-68
2023/06/25 02:32:20;;;;;;;17.15;7.90;;;;;;;18.31;71.05;100146.00;10500362;28;20048;-68
2023/06/25 02:37:21;;;;;;;41.88;23.27;;;;;;;18.48;70.99;100141.69;10503675;28;20045;-68
2023/06/25 02:42:22;;;;;;;67.85;29.52;;;;;;;18.23;70.98;100079.91;10504221;28;20530;-68
2023/06/25 02:47:23;;;;;;;51.45;23.75;;;;;;;19.05;69.63;100146.78;10503933;28;20048;-69
2023/06/25 02:52:24;;;;;;;31.05;15.60;;;;;;;20.01;67.83;100132.25;10502784;28;20075;-68
2023/06/25 02:57:29;;;;;;;19.05;11.15;;;;;;;20.77;65.71;100126.81;10503781;28;20047;-70
2023/06/25 03:02:29;;;;;;;24.33;9.60;;;;;;;20.31;66.47;100123.16;10501523;28;20044;-68
2023/06/25 03:07:30;;;;;;;15.93;9.07;;;;;;;19.90;67.28;100089.09;10488319;28;20041;-68
2023/06/25 03:12:31;;;;;;;21.05;9.45;;;;;;;19.75;67.90;100101.16;10461806;28;20045;-68
2023/06/25 03:17:32;;;;;;;18.83;9.50;;;;;;;19.18;68.26;100021.94;10461409;28;20480;-67
2023/06/25 03:22:32;;;;;;;17.95;10.07;;;;;;;19.81;67.45;100140.66;10461133;28;20044;-68
2023/06/25 03:27:34;;;;;;;21.40;9.60;;;;;;;20.59;65.05;100063.06;10461208;28;20060;-68
2023/06/25 03:32:35;;;;;;;22.88;8.65;;;;;;;22.63;61.48;100113.25;10461126;28;20181;-68
2023/06/25 03:37:35;;;;;;;19.77;9.15;;;;;;;24.11;58.48;100109.97;10460256;28;20102;-68
2023/06/25 03:42:36;;;;;;;23.98;8.73;;;;;;;24.83;55.83;99988.84;10460391;28;20047;-68
2023/06/25 03:47:37;;;;;;;17.23;7.55;;;;;;;25.61;54.72;100087.53;10458925;28;20033;-67
2023/06/25 03:52:38;;;;;;;24.80;8.35;;;;;;;25.80;54.24;100090.47;10458603;28;20056;-68
2023/06/25 03:57:38;;;;;;;23.88;7.32;;;;;;;26.27;52.31;100026.66;10487352;28;20054;-69
2023/06/25 04:02:39;;;;;;;17.90;8.00;;;;;;;27.55;50.18;100067.47;10459441;28;20048;-69
2023/06/25 04:07:40;;;;;;;14.38;8.13;;;;;;;28.03;47.13;100015.69;10458104;28;20390;-69
2023/06/25 04:12:41;;;;;;;21.60;7.70;;;;;;;28.88;45.93;100065.91;10459056;28;20123;-69
2023/06/25 04:17:42;;;;;;;15.85;7.72;;;;;;;29.37;44.45;99998.09;10458792;28;20048;-69
2023/06/25 04:22:42;;;;;;;21.70;7.68;;;;;;;28.99;45.89;100056.44;10458462;28;20130;-69
2023/06/25 04:27:43;;;;;;;16.02;7.82;;;;;;;27.98;46.47;100057.50;10482780;28;20036;-68
2023/06/25 04:32:44;;;;;;;31.67;8.65;;;;;;;27.04;48.35;100054.25;10473517;28;20055;-68
2023/06/25 04:37:45;;;;;;;34.97;8.75;;;;;;;26.50;49.32;100049.69;10457909;28;20043;-68
2023/06/25 04:42:45;;;;;;;16.20;6.97;;;;;;;26.56;49.93;100054.03;10457740;28;20076;-68
2023/06/25 04:47:46;;;;;;;15.80;6.80;;;;;;;26.72;50.05;100052.03;10457264;28;20057;-68
2023/06/25 04:52:47;;;;;;;14.60;6.57;;;;;;;26.09;50.37;99957.31;10456578;28;20041;-68
2023/06/25 04:57:48;;;;;;;19.35;6.70;;;;;;;27.17;49.10;100034.56;10455565;28;20094;-68
2023/06/25 05:02:49;;;;;;;26.45;5.78;;;;;;;27.60;48.02;99954.75;10455540;28;20044;-68
2023/06/25 05:07:49;;;;;;;36.88;6.07;;;;;;;28.52;47.32;100027.34;10456878;28;20436;-68
2023/06/25 05:12:50;;;;;;;13.50;4.78;;;;;;;28.63;45.49;100001.50;10456300;28;20044;-69
2023/06/25 05:17:51;;;;;;;11.73;5.18;;;;;;;29.22;44.60;100001.91;10456063;28;20071;-68
2023/06/25 05:22:52;;;;;;;19.55;5.10;;;;;;;29.51;44.34;99972.38;10455690;28;20045;-68
2023/06/25 05:27:53;;;;;;;15.63;4.93;;;;;;;29.92;42.54;100009.94;10454732;28;20477;-68
2023/06/25 05:32:54;;;;;;;18.88;4.47;;;;;;;30.35;41.68;99998.63;10455935;28;20130;-68
2023/06/25 05:37:56;;;;;;;25.00;5.22;;;;;;;30.65;41.15;100008.06;10469072;28;20049;-68
2023/06/25 05:42:57;;;;;;;15.47;4.87;;;;;;;30.85;40.71;99995.84;10455046;28;20052;-70
2023/06/25 05:47:58;;;;;;;8.95;4.30;;;;;;;30.72;39.40;99969.25;10450154;28;20061;-66
2023/06/25 05:52:59;;;;;;;10.80;4.15;;;;;;;30.82;37.92;99916.94;10455662;28;20041;-65
2023/06/25 05:57:59;;;;;;;8.30;4.10;;;;;;;30.91;37.06;99926.03;10455087;28;20546;-67
2023/06/25 06:03:00;;;;;;;8.45;4.45;;;;;;;31.32;38.32;99971.59;10454210;28;20072;-68
2023/06/25 06:08:01;;;;;;;8.05;3.92;;;;;;;31.12;37.25;99961.97;10459117;28;20051;-69
2023/06/25 06:13:02;;;;;;;15.23;4.70;;;;;;;31.01;37.03;99891.22;10458470;28;20127;-70
2023/06/25 06:18:03;;;;;;;8.90;4.40;;;;;;;31.57;35.98;99939.91;10455532;28;20037;-70
2023/06/25 06:23:03;;;;;;;7.88;4.10;;;;;;;31.80;35.72;99943.34;10495204;28;20044;-67
2023/06/25 06:28:04;;;;;;;13.77;4.15;;;;;;;31.98;35.57;99935.16;10494824;28;20071;-69
2023/06/25 06:33:05;;;;;;;20.23;5.60;;;;;;;32.26;35.10;99936.50;10491426;28;20067;-69
2023/06/25 06:38:06;;;;;;;8.23;4.35;;;;;;;31.72;34.71;99867.25;10454178;28;20068;-71
2023/06/25 06:43:07;;;;;;;15.77;4.63;;;;;;;32.15;34.84;99934.38;10454007;28;20087;-72
2023/06/25 06:48:09;;;;;;;18.58;5.07;;;;;;;32.02;34.78;99927.91;10492548;28;20056;-69
2023/06/25 06:53:09;;;;;;;8.30;4.63;;;;;;;31.68;34.07;99860.78;10495379;28;20044;-70
2023/06/25 06:58:10;;;;;;;10.45;4.32;;;;;;;32.24;34.82;99922.25;10494000;28;20684;-68
2023/06/25 07:03:11;;;;;;;6.45;4.03;;;;;;;32.31;33.75;99921.78;10494763;28;20091;-69
2023/06/25 07:08:13;;;;;;;6.55;4.03;;;;;;;32.16;34.14;99873.63;10492654;28;20040;-72
2023/06/25 07:13:14;;;;;;;8.80;4.17;;;;;;;32.56;33.79;99875.38;10495622;28;20033;-71
2023/06/25 07:18:15;;;;;;;31.73;5.38;;;;;;;32.83;33.28;99893.44;10499330;28;20044;-70
2023/06/25 07:23:16;;;;;;;9.32;4.25;;;;;;;32.92;33.15;99899.72;10502002;28;20086;-71
2023/06/25 07:28:16;;;;;;;10.35;4.05;;;;;;;32.94;33.13;99867.97;10500232;28;20044;-70
2023/06/25 07:33:17;;;;;;;7.35;4.30;;;;;;;33.26;31.75;99879.50;10501364;28;20047;-72
2023/06/25 07:38:18;;;;;;;9.90;4.38;;;;;;;33.48;32.75;99872.94;10501431;28;20048;-71
2023/06/25 07:43:19;;;;;;;6.75;3.97;;;;;;;33.77;31.32;99868.56;10501176;28;20089;-71
2023/06/25 07:48:19;;;;;;;6.15;4.10;;;;;;;33.75;31.00;99879.13;10486227;28;20439;-69
2023/06/25 07:53:20;;;;;;;6.32;4.18;;;;;;;33.82;31.29;99862.84;10456556;28;20163;-68
2023/06/25 07:58:21;;;;;;;6.65;4.18;;;;;;;34.02;31.11;99856.53;10455877;28;20041;-68
2023/06/25 08:03:22;;;;;;;10.35;4.50;;;;;;;34.26;31.25;99855.84;10459081;28;20044;-68
2023/06/25 08:08:23;;;;;;;7.50;4.20;;;;;;;34.47;30.74;99852.25;10474276;28;20048;-68
2023/06/25 08:13:23;;;;;;;6.32;4.20;;;;;;;34.51;30.59;99840.19;10459041;28;20530;-68
2023/06/25 08:18:24;;;;;;;10.15;3.90;;;;;;;34.27;30.66;99851.16;10458678;28;20040;-70
2023/06/25 08:23:25;;;;;;;12.20;4.25;;;;;;;33.87;30.64;99774.50;10458771;28;20503;-69
2023/06/25 08:28:26;;;;;;;10.52;3.90;;;;;;;34.05;31.58;99839.34;10457061;28;20041;-69
2023/06/25 08:33:27;;;;;;;8.23;4.35;;;;;;;33.18;31.61;99790.34;10472430;28;20040;-68
2023/06/25 08:38:28;;;;;;;28.80;5.88;;;;;;;33.24;32.29;99843.28;10460156;28;20052;-67
2023/06/25 08:43:29;;;;;;;13.57;4.30;;;;;;;33.22;31.36;99820.78;10470090;28;20561;-68
2023/06/25 08:48:36;;;;;;;14.15;4.10;;;;;;;33.75;31.24;99829.53;10477521;28;20133;-68
2023/06/25 08:53:37;;;;;;;9.98;4.00;;;;;;;33.97;30.84;99831.13;10461872;28;20136;-68
2023/06/25 08:58:37;;;;;;;8.65;3.88;;;;;;;33.63;31.09;99772.44;10455630;28;20149;-68
2023/06/25 09:03:41;;;;;;;10.65;4.53;;;;;;;34.22;31.08;99832.06;10465474;28;20399;-69
2023/06/25 09:08:43;;;;;;;9.70;4.18;;;;;;;34.38;31.33;99812.94;10465949;28;20049;-68
2023/06/25 09:13:44;;;;;;;8.05;4.43;;;;;;;34.47;30.38;99789.63;10457094;28;20037;-68
2023/06/25 09:18:45;;;;;;;8.98;4.03;;;;;;;34.42;29.73;99803.63;10483075;28;20055;-68
2023/06/25 09:23:51;;;;;;;9.23;3.80;;;;;;;34.61;29.26;99780.25;10465592;28;20040;-67
2023/06/25 09:28:57;;;;;;;11.52;4.45;;;;;;;35.18;29.46;99798.66;10468216;28;20401;-69
2023/06/25 09:33:58;;;;;;;7.75;4.43;;;;;;;34.90;29.02;99716.56;10468004;28;20071;-68
2023/06/25 09:38:59;;;;;;;19.23;3.97;;;;;;;35.25;29.00;99793.38;10464199;28;20124;-67
2023/06/25 09:44:02;;;;;;;11.38;3.95;;;;;;;35.10;28.56;99760.97;10464537;28;20476;-68
2023/06/25 09:49:04;;;;;;;6.90;4.05;;;;;;;34.84;29.73;99767.63;10469389;28;20060;-67
2023/06/25 09:54:08;;;;;;;10.68;4.32;;;;;;;34.37;31.06;99779.03;10463685;28;20484;-68
2023/06/25 09:59:09;;;;;;;5.97;4.15;;;;;;;34.12;30.14;99739.56;10477345;28;20082;-67
2023/06/25 10:04:10;;;;;;;13.15;4.63;;;;;;;34.71;30.29;99754.97;10460741;28;20511;-69
2023/06/25 10:09:11;;;;;;;11.85;4.28;;;;;;;34.86;30.52;99757.03;10453957;28;20041;-68
2023/06/25 10:14:15;;;;;;;10.75;4.35;;;;;;;34.88;29.38;99757.50;10496185;28;20036;-68
2023/06/25 10:19:23;;;;;;;8.52;4.03;;;;;;;35.22;29.74;99758.19;10496084;28;20531;-67
2023/06/25 10:24:24;;;;;;;8.07;3.95;;;;;;;34.98;29.52;99687.25;10495627;28;20075;-69
2023/06/25 10:29:25;;;;;;;9.55;4.32;;;;;;;34.84;29.60;99648.16;10473571;28;20117;-70
2023/06/25 10:34:25;;;;;;;10.32;4.88;;;;;;;34.78;29.57;99677.16;10474828;28;20055;-68
2023/06/25 10:39:44;;;;;;;12.45;4.20;;;;;;;35.12;29.45;99744.84;10473733;28;20032;-68
2023/06/25 10:44:45;;;;;;;13.20;4.43;;;;;;;35.38;29.62;99717.63;10472052;28;20121;-68
2023/06/25 10:49:46;;;;;;;8.93;3.95;;;;;;;35.64;28.78;99719.19;10452359;28;20056;-69
2023/06/25 10:54:47;;;;;;;12.43;4.32;;;;;;;35.58;29.32;99706.78;10453522;28;20032;-69
2023/06/25 10:59:50;;;;;;;7.50;4.10;;;;;;;35.79;28.85;99714.88;10456364;28;20081;-70
2023/06/25 11:04:55;;;;;;;9.75;4.60;;;;;;;35.38;29.73;99656.88;10468604;28;20045;-68
2023/06/25 11:09:57;;;;;;;8.50;4.50;;;;;;;35.21;30.37;99717.91;10475283;28;20045;-68
2023/06/25 11:14:58;;;;;;;12.10;4.82;;;;;;;34.24;30.85;99642.31;10479216;28;20139;-68
2023/06/25 11:19:59;;;;;;;9.75;4.18;;;;;;;35.11;30.30;99705.41;10479454;28;20158;-68
2023/06/25 11:25:05;;;;;;;13.13;4.60;;;;;;;35.29;29.86;99692.13;10480656;28;20048;-68
2023/06/25 11:30:09;;;;;;;10.13;4.25;;;;;;;34.74;30.33;99694.41;10493258;28;20117;-67
2023/06/25 11:35:15;;;;;;;15.93;4.95;;;;;;;34.30;30.64;99696.88;10480705;28;20037;-66
2023/06/25 11:40:22;;;;;;;7.82;4.47;;;;;;;34.31;30.76;99689.41;10485646;28;20049;-67
2023/06/25 11:45:24;;;;;;;6.88;4.30;;;;;;;34.14;30.82;99682.16;10487992;28;20478;-67
2023/06/25 11:50:26;;;;;;;13.32;5.47;;;;;;;34.30;30.62;99671.25;10480121;28;20056;-68
2023/06/25 11:55:27;;;;;;;19.85;5.97;;;;;;;34.58;30.81;99673.38;10478289;28;20036;-68
2023/06/25 12:00:28;;;;;;;37.53;6.47;;;;;;;34.09;31.82;99644.59;10479812;28;20231;-68
2023/06/25 12:05:28;;;;;;;13.07;5.35;;;;;;;33.79;31.28;99665.19;10476387;28;20037;-68
2023/06/25 12:10:29;;;;;;;13.35;5.05;;;;;;;33.53;31.64;99655.22;10478709;28;20037;-68
2023/06/25 12:15:30;;;;;;;10.55;5.18;;;;;;;33.27;31.77;99599.59;10483375;28;20403;-68
2023/06/25 12:20:31;;;;;;;16.55;4.78;;;;;;;33.57;32.11;99647.91;10486364;28;20032;-67
2023/06/25 12:25:32;;;;;;;10.40;4.70;;;;;;;32.99;31.66;99591.06;10493554;28;20101;-67
2023/06/25 12:30:32;;;;;;;10.30;5.07;;;;;;;33.20;32.37;99671.66;10485981;28;20037;-68
2023/06/25 12:35:33;;;;;;;7.88;4.85;;;;;;;33.16;32.58;99671.53;10477193;28;20044;-67
2023/06/25 12:40:34;;;;;;;14.73;5.30;;;;;;;33.75;32.27;99647.72;10478046;28;20094;-67
2023/06/25 12:45:35;;;;;;;18.00;5.60;;;;;;;34.44;31.51;99649.69;10458398;28;20052;-67
2023/06/25 12:50:36;;;;;;;13.57;5.53;;;;;;;34.63;30.79;99635.31;10458597;28;20483;-67
2023/06/25 12:55:37;;;;;;;29.80;6.47;;;;;;;35.03;30.76;99644.78;10489483;28;20052;-68
2023/06/25 13:00:37;;;;;;;47.22;7.45;;;;;;;35.14;30.84;99626.63;10474423;28;20055;-68
2023/06/25 13:05:38;;;;;;;19.30;5.55;;;;;;;35.13;30.38;99619.50;10467581;28;20511;-69
2023/06/25 13:10:40;;;;;;;8.95;5.45;;;;;;;35.18;30.18;99633.03;10456865;28;20033;-67
2023/06/25 13:15:41;;;;;;;15.82;5.35;;;;;;;34.71;30.10;99559.13;10456391;28;20040;-66
2023/06/25 13:20:41;;;;;;;11.13;5.22;;;;;;;35.08;30.60;99626.06;10456569;28;20036;-67
2023/06/25 13:25:42;;;;;;;9.20;5.15;;;;;;;34.87;30.21;99625.41;10456580;28;20045;-66
2023/06/25 13:30:45;;;;;;;12.60;4.75;;;;;;;34.77;29.80;99621.16;10455983;28;20064;-66
2023/06/25 13:35:45;;;;;;;23.48;5.38;;;;;;;34.86;30.35;99616.31;10485991;28;20040;-67
2023/06/25 13:40:46;;;;;;;13.65;4.95;;;;;;;34.97;30.26;99619.38;10496559;28;20036;-67
2023/06/25 13:45:47;;;;;;;19.80;5.95;;;;;;;35.12;30.18;99618.69;10468980;28;20118;-67
2023/06/25 13:50:48;;;;;;;20.95;5.38;;;;;;;35.15;29.93;99608.88;10455194;28;20149;-67
2023/06/25 13:55:49;;;;;;;24.20;5.43;;;;;;;34.64;29.86;99548.69;10469271;28;20047;-67
2023/06/25 14:00:52;;;;;;;23.15;5.43;;;;;;;35.10;30.19;99626.50;10495769;28;20082;-67
2023/06/25 14:05:53;;;;;;;8.13;5.30;;;;;;;34.40;29.77;99540.41;10496230;28;20074;-68
2023/06/25 14:10:54;;;;;;;7.68;4.63;;;;;;;34.54;29.77;99588.56;10495894;28;20109;-68
2023/06/25 14:15:55;;;;;;;16.38;5.15;;;;;;;34.69;30.23;99614.63;10462298;28;20037;-67
2023/06/25 14:20:55;;;;;;;13.55;5.13;;;;;;;34.65;30.55;99616.47;10454513;28;20044;-67
2023/06/25 14:25:56;;;;;;;21.38;5.38;;;;;;;34.67;31.24;99621.63;10453078;28;20045;-67
2023/06/25 14:30:59;;;;;;;8.50;4.38;;;;;;;34.35;30.17;99599.38;10454612;28;20602;-68
2023/06/25 14:36:00;;;;;;;13.00;4.63;;;;;;;34.24;30.90;99600.97;10454509;28;20068;-67
2023/06/25 14:41:00;;;;;;;12.07;4.90;;;;;;;34.35;30.13;99613.16;10454100;28;20068;-67
2023/06/25 14:46:01;;;;;;;15.45;4.40;;;;;;;34.06;30.74;99597.63;10454008;28;20045;-67
2023/06/25 14:51:02;;;;;;;30.85;6.07;;;;;;;33.65;31.06;99547.03;10454236;28;20072;-67
2023/06/25 14:56:03;;;;;;;14.10;4.50;;;;;;;33.91;31.55;99614.81;10453355;28;20037;-67
2023/06/25 15:01:04;;;;;;;7.82;4.40;;;;;;;33.82;31.82;99604.69;10453701;28;20037;-68
2023/06/25 15:06:04;;;;;;;8.73;4.50;;;;;;;33.46;32.05;99557.78;10452926;28;20087;-68
2023/06/25 15:11:05;;;;;;;15.60;5.05;;;;;;;33.71;32.51;99614.53;10453037;28;20068;-68
2023/06/25 15:16:06;;;;;;;20.00;4.85;;;;;;;33.68;32.14;99630.94;10453239;28;20432;-67
2023/06/25 15:21:07;;;;;;;13.02;4.85;;;;;;;33.15;32.52;99576.38;10451533;28;20033;-67
2023/06/25 15:26:08;;;;;;;58.28;6.18;;;;;;;33.37;32.45;99626.69;10452656;28;20048;-67
2023/06/25 15:31:09;;;;;;;10.10;4.93;;;;;;;33.22;32.71;99630.84;10453338;28;20044;-67
2023/06/25 15:36:10;;;;;;;52.38;7.18;;;;;;;32.96;33.31;99617.28;10453043;28;20045;-68
2023/06/25 15:41:11;;;;;;;15.10;5.20;;;;;;;32.43;33.93;99561.03;10459927;28;20045;-67
2023/06/25 15:46:12;;;;;;;21.23;4.30;;;;;;;32.62;34.65;99619.13;10459478;28;20039;-68
2023/06/25 15:51:12;;;;;;;18.98;5.00;;;;;;;32.40;34.99;99608.38;10459501;28;20516;-67
2023/06/25 15:56:13;;;;;;;23.67;5.00;;;;;;;32.38;34.95;99641.72;10460068;28;20045;-68
2023/06/25 16:01:14;;;;;;;23.92;5.40;;;;;;;32.12;35.70;99655.56;10460264;28;20516;-67
2023/06/25 16:06:15;;;;;;;19.23;5.03;;;;;;;31.84;35.75;99628.47;10459554;28;20079;-67
2023/06/25 16:11:17;;;;;;;15.73;4.70;;;;;;;31.70;35.89;99641.59;10459505;28;20041;-67
2023/06/25 16:16:18;;;;;;;10.05;4.45;;;;;;;30.65;36.74;99514.63;10459793;28;20037;-68
2023/06/25 16:21:19;;;;;;;20.08;5.18;;;;;;;31.19;37.60;99645.16;10459442;28;20515;-67
2023/06/25 16:26:19;;;;;;;16.08;5.30;;;;;;;30.97;38.06;99635.97;10458716;28;20044;-67
2023/06/25 16:31:20;;;;;;;25.92;5.28;;;;;;;30.69;39.13;99636.22;10457945;28;20468;-67
2023/06/25 16:36:21;;;;;;;21.02;5.65;;;;;;;30.19;39.38;99600.91;10458919;28;20072;-67
2023/06/25 16:41:22;;;;;;;34.63;5.72;;;;;;;30.06;39.82;99607.28;10458178;28;20033;-67
2023/06/25 16:46:23;;;;;;;104.80;10.70;;;;;;;29.15;40.98;99517.44;10468919;28;20039;-67
2023/06/25 16:51:24;;;;;;;53.97;7.97;;;;;;;29.70;41.73;99645.75;10478302;28;20056;-68
2023/06/25 16:56:25;;;;;;;23.02;5.63;;;;;;;29.35;42.03;99623.59;10484507;28;20041;-68
2023/06/25 17:01:25;;;;;;;20.17;5.38;;;;;;;29.22;42.62;99658.06;10477297;28;20047;-68
2023/06/25 17:06:26;;;;;;;17.40;5.22;;;;;;;29.17;42.17;99674.63;10476120;28;20060;-68
2023/06/25 17:11:27;;;;;;;17.15;5.10;;;;;;;28.59;42.63;99604.22;10487725;28;20032;-68
2023/06/25 17:16:28;;;;;;;19.02;4.30;;;;;;;29.00;43.69;99680.69;10482086;28;20135;-66
2023/06/25 17:21:29;;;;;;;10.40;3.63;;;;;;;28.92;44.19;99681.41;10487405;28;20456;-67
2023/06/25 17:26:29;;;;;;;25.77;4.50;;;;;;;28.80;44.67;99690.13;10473269;28;20491;-67
2023/06/25 17:31:31;;;;;;;18.63;4.43;;;;;;;28.52;45.43;99686.63;10477120;28;20040;-66
2023/06/25 17:36:32;;;;;;;31.10;5.07;;;;;;;28.48;46.02;99702.00;10467756;28;20047;-67
2023/06/25 17:41:33;;;;;;;17.48;5.00;;;;;;;27.88;46.59;99633.69;10455240;28;20063;-67
2023/06/25 17:46:34;;;;;;;30.15;4.78;;;;;;;28.11;47.40;99703.72;10456136;28;20040;-67
2023/06/25 17:51:35;;;;;;;21.90;4.80;;;;;;;27.59;47.95;99640.19;10455741;28;20067;-66
2023/06/25 17:56:35;;;;;;;23.73;4.53;;;;;;;26.99;48.21;99569.13;10454579;28;20041;-66
2023/06/25 18:01:36;;;;;;;19.13;4.60;;;;;;;27.69;49.33;99702.75;10455036;28;20095;-67
2023/06/25 18:06:37;;;;;;;16.40;4.38;;;;;;;27.53;50.00;99685.03;10454695;28;20041;-67
2023/06/25 18:11:38;;;;;;;24.30;4.60;;;;;;;26.83;50.85;99599.31;10455566;28;20049;-67
2023/06/25 18:16:39;;;;;;;17.25;4.15;;;;;;;26.71;51.54;99612.53;10454083;28;20124;-67
2023/06/25 18:21:40;;;;;;;29.70;4.25;;;;;;;26.75;51.43;99631.88;10454596;28;20072;-67
2023/06/25 18:26:43;;;;;;;15.30;4.15;;;;;;;27.11;51.54;99686.69;10454509;28;20040;-67
2023/06/25 18:31:45;;;;;;;33.92;12.73;;;;;;;26.95;52.33;99685.25;10454823;28;20041;-67
2023/06/25 18:36:46;;;;;;;28.02;6.15;;;;;;;26.51;53.21;99650.97;10453666;28;20052;-66
2023/06/25 18:41:46;;;;;;;31.88;5.93;;;;;;;26.17;54.94;99644.50;10454255;28;20469;-67
2023/06/25 18:46:48;;;;;;;23.70;6.78;;;;;;;26.15;56.40;99684.78;10453197;28;20041;-67
2023/06/25 18:51:49;;;;;;;21.50;7.30;;;;;;;25.54;56.66;99598.25;10453868;28;20060;-67
2023/06/25 18:56:50;;;;;;;29.13;7.28;;;;;;;25.73;57.02;99658.22;10453808;28;20037;-66
2023/06/25 19:01:55;;;;;;;27.67;5.97;;;;;;;25.29;58.53;99607.44;10453762;28;20052;-66
2023/06/25 19:06:56;;;;;;;25.60;5.65;;;;;;;25.59;58.57;99677.06;10453158;28;20107;-66
2023/06/25 19:11:57;;;;;;;20.42;5.45;;;;;;;25.48;58.90;99676.31;10455071;28;20076;-66
2023/06/25 19:16:58;;;;;;;31.70;6.63;;;;;;;25.24;59.37;99642.78;10461551;28;20569;-66
2023/06/25 19:21:59;;;;;;;32.55;6.78;;;;;;;24.85;60.11;99608.22;10489672;28;20044;-69
2023/06/25 19:26:59;;;;;;;30.85;8.50;;;;;;;25.11;60.71;99670.59;10503044;28;20446;-69
2023/06/25 19:32:00;;;;;;;41.83;8.27;;;;;;;24.56;61.93;99605.38;10501858;28;20079;-69
2023/06/25 19:37:01;;;;;;;32.80;7.70;;;;;;;24.83;62.41;99681.06;10502961;28;20378;-69
2023/06/25 19:42:03;;;;;;;35.45;8.00;;;;;;;24.55;63.67;99667.00;10501881;28;20041;-69
2023/06/25 19:47:04;;;;;;;40.63;7.55;;;;;;;24.41;64.28;99646.97;10502211;28;20086;-69
2023/06/25 19:52:05;;;;;;;34.95;7.55;;;;;;;23.95;64.89;99606.34;10500799;28;20470;-69
2023/06/25 19:57:06;;;;;;;35.15;7.35;;;;;;;24.18;65.07;99677.41;10501500;28;20052;-69
2023/06/25 20:02:06;;;;;;;21.92;6.15;;;;;;;24.08;65.78;99675.50;10501023;28;20044;-69
2023/06/25 20:07:07;;;;;;;37.70;7.00;;;;;;;23.92;66.14;99670.09;10501017;28;20488;-69
2023/06/25 20:12:08;;;;;;;21.75;5.85;;;;;;;23.71;66.98;99662.25;10500789;28;20040;-69
2023/06/25 20:17:09;;;;;;;27.05;6.63;;;;;;;23.55;67.91;99658.69;10498766;28;20503;-71
2023/06/25 20:22:09;;;;;;;22.77;6.30;;;;;;;23.52;68.28;99651.91;10498356;28;20182;-69
2023/06/25 20:27:10;;;;;;;26.38;6.13;;;;;;;23.07;68.82;99603.91;10492262;28;20036;-70
2023/06/25 20:32:11;;;;;;;23.10;6.45;;;;;;;23.26;69.35;99642.13;10495449;28;20093;-70
2023/06/25 20:37:12;;;;;;;21.52;6.82;;;;;;;22.64;70.36;99554.47;10499774;28;20052;-70
2023/06/25 20:42:13;;;;;;;24.70;6.22;;;;;;;22.75;70.50;99573.19;10499215;28;20036;-70
2023/06/25 20:47:13;;;;;;;27.40;6.32;;;;;;;22.44;71.03;99523.59;10500438;28;20043;-70
2023/06/25 20:52:14;;;;;;;22.35;6.55;;;;;;;23.16;71.68;99651.06;10489909;28;20052;-70
2023/06/25 20:57:15;;;;;;;31.52;6.10;;;;;;;23.02;71.75;99654.28;10466181;28;20048;-70
2023/06/25 21:02:16;;;;;;;20.20;5.95;;;;;;;22.90;72.10;99650.16;10498646;28;20133;-69
2023/06/25 21:07:16;;;;;;;26.73;6.18;;;;;;;22.39;72.33;99571.47;10498495;28;20070;-70
2023/06/25 21:12:17;;;;;;;44.67;7.35;;;;;;;22.45;72.31;99589.34;10489557;28;20037;-70
2023/06/25 21:17:18;;;;;;;30.13;6.50;;;;;;;22.91;72.85;99654.47;10456269;28;20053;-70
2023/06/25 21:22:19;;;;;;;25.42;6.47;;;;;;;22.74;73.11;99646.59;10456766;28;20162;-70
2023/06/25 21:27:20;;;;;;;18.45;5.65;;;;;;;22.58;73.70;99644.88;10455813;28;20120;-70
2023/06/25 21:32:20;;;;;;;33.88;7.32;;;;;;;22.45;74.22;99638.88;10456008;28;20374;-70
2023/06/25 21:37:21;;;;;;;23.13;6.32;;;;;;;22.00;74.53;99558.25;10455041;28;20051;-70
2023/06/25 21:42:22;;;;;;;19.45;5.95;;;;;;;21.95;74.49;99569.03;10456056;28;20582;-72
2023/06/25 21:47:23;;;;;;;9.57;5.13;;;;;;;22.25;74.81;99642.28;10455122;28;20041;-70
2023/06/25 21:52:23;;;;;;;13.98;5.63;;;;;;;22.19;75.48;99639.81;10455802;28;20053;-70
2023/06/25 21:57:24;;;;;;;16.33;5.30;;;;;;;22.14;75.67;99637.03;10454757;28;20091;-70
2023/06/25 22:02:25;;;;;;;12.88;5.10;;;;;;;21.51;75.99;99553.06;10454866;28;20483;-70
2023/06/25 22:07:26;;;;;;;20.90;5.25;;;;;;;21.57;76.61;99573.69;10455566;28;20119;-70
2023/06/25 22:12:27;;;;;;;15.77;5.45;;;;;;;21.92;76.65;99635.28;10454862;28;20124;-70
2023/06/25 22:17:27;;;;;;;15.13;5.18;;;;;;;21.87;76.84;99633.38;10455367;28;20099;-69
2023/06/25 22:22:28;;;;;;;16.13;6.80;;;;;;;21.70;77.47;99631.88;10454091;28;20060;-70
2023/06/25 22:27:29;;;;;;;27.70;7.07;;;;;;;21.37;78.02;99585.94;10453048;28;20416;-69
2023/06/25 22:32:30;;;;;;;12.93;5.32;;;;;;;21.53;78.44;99621.19;10453862;28;20040;-69
2023/06/25 22:37:31;;;;;;;13.98;5.43;;;;;;;21.27;78.86;99574.19;10454205;28;20041;-70
2023/06/25 22:42:32;;;;;;;14.32;5.03;;;;;;;21.53;79.00;99622.00;10454058;28;20052;-70
2023/06/25 22:47:32;;;;;;;18.10;4.93;;;;;;;21.50;79.69;99627.94;10455522;28;20040;-69
2023/06/25 22:52:33;;;;;;;12.52;5.10;;;;;;;20.84;79.92;99533.59;10460844;28;20409;-69
2023/06/25 22:57:34;;;;;;;16.25;5.53;;;;;;;21.30;80.36;99625.84;10461684;28;20036;-69
2023/06/25 23:02:35;;;;;;;14.85;5.05;;;;;;;21.31;80.60;99630.16;10461538;28;20045;-70